Time;durP1;ratioP1;P1;durP2;ratioP2;P2;SDS_P1;SDS_P2;PMS_P1;PMS_P2;Temp;Humidity;BMP_temperature;BMP_pressure;BME280_temperature;BME280_humidity;BME280_pressure;Samples;Min_cycle;Max_cycle;Signal;HPM_P1;HPM_P2
2021/12/19 00:00:38;;;;;;;0.98;0.88;;;20.90;27.20;21.50;95251.00;;;;10254982;28;47242;-64
2021/12/19 00:10:58;;;;;;;1.42;1.08;;;20.90;26.60;21.50;95237.00;;;;10272005;28;45067;-63
2021/12/19 00:15:59;;;;;;;1.00;0.88;;;21.00;26.70;21.50;95213.00;;;;10276986;28;45400;-63
2021/12/19 00:21:00;;;;;;;1.20;0.90;;;20.90;26.70;21.50;95221.00;;;;10269939;28;45320;-64
2021/12/19 00:26:00;;;;;;;1.38;1.10;;;20.90;26.70;21.50;95211.00;;;;10236412;28;45284;-64
2021/12/19 00:31:02;;;;;;;1.25;1.10;;;20.90;26.70;21.50;95217.00;;;;10236725;28;47279;-63
2021/12/19 00:36:04;;;;;;;1.10;1.00;;;20.90;26.70;21.40;95208.00;;;;10236325;28;45276;-63
2021/12/19 00:41:06;;;;;;;1.33;1.23;;;20.90;26.70;21.50;95212.00;;;;10236297;28;47021;-63
2021/12/19 00:46:07;;;;;;;0.85;0.80;;;20.90;26.70;21.50;95227.00;;;;10236270;28;45650;-61
2021/12/19 00:51:14;;;;;;;1.10;0.90;;;20.90;26.70;21.40;95238.00;;;;10236532;28;46388;-63
2021/12/19 00:56:15;;;;;;;1.00;0.90;;;20.90;26.70;21.40;95237.00;;;;10220547;28;46940;-63
2021/12/19 01:01:16;;;;;;;1.10;1.00;;;20.90;26.70;21.40;95219.00;;;;10236097;28;45516;-62
2021/12/19 01:06:18;;;;;;;1.10;0.80;;;20.90;26.70;21.40;95215.00;;;;10235057;28;45293;-62
2021/12/19 01:11:19;;;;;;;1.15;1.02;;;20.90;26.70;21.40;95226.00;;;;10238506;28;45319;-62
2021/12/19 01:16:20;;;;;;;0.82;0.80;;;20.90;26.70;21.40;95238.00;;;;10276970;28;45394;-63
2021/12/19 01:21:21;;;;;;;1.08;0.93;;;20.90;26.70;21.40;95221.00;;;;10264486;28;45886;-62
2021/12/19 01:26:21;;;;;;;1.00;0.88;;;20.90;26.70;21.50;95207.00;;;;10230490;28;45231;-65
2021/12/19 01:31:22;;;;;;;1.10;0.90;;;20.90;26.70;21.40;95226.00;;;;10229895;28;47323;-65
2021/12/19 01:36:23;;;;;;;1.48;0.90;;;20.90;26.70;21.50;95205.00;;;;10218167;28;47150;-64
2021/12/19 01:41:24;;;;;;;1.10;0.90;;;20.90;26.70;21.50;95218.00;;;;10234894;28;46929;-63
2021/12/19 01:46:24;;;;;;;1.00;0.90;;;20.90;26.70;21.50;95225.00;;;;10235549;28;45673;-63
2021/12/19 01:51:25;;;;;;;1.02;0.77;;;20.90;26.70;21.50;95220.00;;;;10234388;28;46513;-64
2021/12/19 01:56:26;;;;;;;0.73;0.70;;;20.90;26.70;21.40;95195.00;;;;10217496;28;48047;-62
2021/12/19 02:01:27;;;;;;;1.13;1.00;;;20.90;26.70;21.50;95194.00;;;;10213173;28;48179;-65
2021/12/19 02:06:27;;;;;;;1.00;0.90;;;20.90;26.70;21.50;95198.00;;;;10230739;28;46957;-65
2021/12/19 02:11:28;;;;;;;1.20;0.93;;;20.90;26.70;21.50;95202.00;;;;10238642;28;45287;-62
2021/12/19 02:16:30;;;;;;;1.45;0.85;;;20.90;26.70;21.50;95183.00;;;;10274921;28;45384;-64
2021/12/19 02:21:30;;;;;;;1.10;0.88;;;20.90;26.70;21.50;95179.00;;;;10273306;28;45338;-63
2021/12/19 02:26:32;;;;;;;0.90;0.82;;;20.90;26.70;21.50;95174.00;;;;10272700;28;48581;-63
2021/12/19 02:31:33;;;;;;;1.00;0.93;;;20.90;26.70;21.50;95203.00;;;;10272869;28;47045;-63
2021/12/19 02:36:53;;;;;;;1.13;0.98;;;20.90;26.70;21.50;95196.00;;;;10256084;28;47319;-62
2021/12/19 02:52:33;;;;;;;1.00;0.70;;;20.90;26.70;21.50;95191.00;;;;10273526;28;45222;-64
2021/12/19 02:57:36;;;;;;;0.82;0.70;;;20.90;26.70;21.50;95164.00;;;;10272115;28;46137;-63
2021/12/19 03:02:36;;;;;;;1.10;0.80;;;20.90;26.70;21.50;95184.00;;;;10272119;28;45354;-63
2021/12/19 03:07:41;;;;;;;1.23;0.90;;;20.90;26.70;21.50;95193.00;;;;10271640;28;45504;-63
2021/12/19 03:18:13;;;;;;;1.42;0.80;;;20.90;26.70;21.50;95163.00;;;;10271957;28;45171;-63
2021/12/19 03:23:15;;;;;;;1.35;1.00;;;20.90;26.70;21.40;95174.00;;;;10255263;28;47831;-62
2021/12/19 03:28:17;;;;;;;0.80;0.80;;;20.90;26.70;21.40;95181.00;;;;10271219;28;47417;-62
2021/12/19 03:33:19;;;;;;;0.80;0.70;;;20.90;26.70;21.50;95171.00;;;;10271750;28;45174;-64
2021/12/19 03:38:20;;;;;;;0.90;0.70;;;20.90;26.70;21.40;95153.00;;;;10271488;28;45240;-62
2021/12/19 03:43:23;;;;;;;0.90;0.88;;;20.90;26.60;21.40;95152.00;;;;10287662;28;47353;-62
2021/12/19 03:48:24;;;;;;;1.00;0.90;;;20.90;26.70;21.40;95166.00;;;;10274867;28;45405;-62
2021/12/19 03:53:25;;;;;;;1.10;1.00;;;20.90;26.70;21.40;95153.00;;;;10278336;28;45382;-64
2021/12/19 03:58:26;;;;;;;0.90;0.80;;;20.90;26.70;21.40;95144.00;;;;10278135;28;47429;-63
2021/12/19 04:03:29;;;;;;;0.75;0.75;;;20.90;26.70;21.50;95136.00;;;;10278123;28;45466;-64
2021/12/19 04:08:29;;;;;;;1.00;0.82;;;20.90;26.70;21.50;95134.00;;;;10277184;28;45457;-63
2021/12/19 04:13:30;;;;;;;0.80;0.80;;;20.90;26.70;21.50;95129.00;;;;10257457;28;45383;-62
2021/12/19 04:18:31;;;;;;;1.25;0.90;;;20.90;26.70;21.50;95131.00;;;;10236781;28;45554;-62
2021/12/19 04:23:33;;;;;;;1.08;0.80;;;20.90;26.70;21.50;95114.00;;;;10265083;28;45292;-64
2021/12/19 04:28:33;;;;;;;1.10;0.90;;;20.90;26.70;21.50;95125.00;;;;10293016;28;47241;-63
2021/12/19 04:33:37;;;;;;;1.00;0.90;;;20.90;26.60;21.50;95124.00;;;;10276628;28;46057;-63
2021/12/19 05:14:59;;;;;;;0.57;0.57;;;21.00;26.70;21.70;95096.00;;;;10244210;28;45146;-63
2021/12/19 05:20:20;;;;;;;1.00;0.80;;;21.10;26.70;21.80;95112.00;;;;10218865;28;48111;-62
2021/12/19 05:25:21;;;;;;;0.82;0.80;;;21.20;26.70;21.80;95104.00;;;;10236377;28;45200;-63
2021/12/19 05:30:23;;;;;;;0.60;0.60;;;21.20;26.60;21.90;95088.00;;;;10234186;28;47469;-64
2021/12/19 05:44:08;;;;;;;0.90;0.80;;;21.30;26.60;21.90;95096.00;;;;10234755;28;45569;-61
2021/12/19 05:46:05;;;;;;;1.25;0.73;;;21.40;26.50;21.90;95077.00;;;;10235090;28;45192;-62
2021/12/19 05:51:06;;;;;;;0.75;0.75;;;21.40;26.50;21.80;95095.00;;;;10218515;28;47746;-62
2021/12/19 05:56:06;;;;;;;1.00;0.90;;;21.30;26.40;21.80;95083.00;;;;10233933;28;46898;-63
2021/12/19 06:01:07;;;;;;;0.70;0.70;;;21.30;26.50;21.70;95099.00;;;;10233980;28;45966;-64
2021/12/19 06:06:08;;;;;;;0.80;0.70;;;21.20;26.50;21.70;95084.00;;;;10233841;28;45130;-64
2021/12/19 06:11:10;;;;;;;0.80;0.80;;;21.20;26.50;21.70;95086.00;;;;10234230;28;46978;-63
2021/12/19 06:16:11;;;;;;;0.77;0.77;;;21.20;26.50;21.70;95090.00;;;;10273048;28;46944;-63
2021/12/19 06:21:11;;;;;;;1.00;0.70;;;21.20;26.60;21.80;95097.00;;;;10275226;28;46149;-63
2021/12/19 06:26:12;;;;;;;0.80;0.70;;;21.20;26.50;21.80;95089.00;;;;10274883;28;45594;-62
2021/12/19 06:31:13;;;;;;;0.90;0.73;;;21.20;26.50;21.90;95092.00;;;;10274548;28;46341;-63
2021/12/19 06:36:14;;;;;;;0.88;0.80;;;21.30;26.50;21.90;95095.00;;;;10273043;28;46173;-63
2021/12/19 06:41:14;;;;;;;1.15;0.80;;;21.40;26.50;21.90;95082.00;;;;10273428;28;45326;-62
2021/12/19 06:46:15;;;;;;;0.85;0.80;;;21.40;26.40;22.00;95094.00;;;;10272954;28;45359;-63
2021/12/19 06:51:16;;;;;;;0.73;0.73;;;21.40;26.40;22.00;95072.00;;;;10272252;28;45191;-64
2021/12/19 06:56:17;;;;;;;0.90;0.77;;;21.40;26.40;21.90;95069.00;;;;10288351;28;47099;-62
2021/12/19 07:01:18;;;;;;;0.57;0.57;;;21.40;26.40;21.90;95058.00;;;;10272541;28;48315;-62
2021/12/19 07:06:18;;;;;;;1.02;0.70;;;21.40;26.40;21.80;95062.00;;;;10271924;28;48175;-63
2021/12/19 07:11:20;;;;;;;0.80;0.77;;;21.30;26.40;21.80;95053.00;;;;10288457;28;46960;-63
2021/12/19 07:16:21;;;;;;;0.90;0.70;;;21.30;26.40;21.80;95053.00;;;;10271546;28;45211;-63
2021/12/19 07:21:23;;;;;;;0.90;0.80;;;21.30;26.40;21.80;95046.00;;;;10272795;28;45287;-62
2021/12/19 07:26:24;;;;;;;0.95;0.80;;;21.20;26.40;21.80;95044.00;;;;10270525;28;47940;-62
2021/12/19 07:31:29;;;;;;;1.00;0.90;;;21.20;26.40;21.80;95058.00;;;;10251868;28;45199;-63
2021/12/19 07:36:37;;;;;;;0.73;0.73;;;21.30;26.50;21.90;95068.00;;;;10253256;28;45312;-64
2021/12/19 07:41:38;;;;;;;1.00;0.80;;;21.30;26.40;21.90;95067.00;;;;10236565;28;47091;-63
2021/12/19 07:46:38;;;;;;;0.98;0.75;;;21.30;26.40;22.00;95068.00;;;;10231432;28;46122;-63
2021/12/19 07:51:39;;;;;;;0.93;0.82;;;21.40;26.40;22.00;95063.00;;;;10240297;28;46485;-62
2021/12/19 07:56:40;;;;;;;0.98;0.80;;;21.40;26.40;22.00;95049.00;;;;10230598;28;45187;-62
2021/12/19 08:01:41;;;;;;;1.00;0.90;;;21.50;26.40;22.00;95061.00;;;;10231056;28;47782;-63
2021/12/19 08:06:41;;;;;;;1.02;0.90;;;21.50;26.40;22.00;95042.00;;;;10214045;28;48210;-63
2021/12/19 08:11:42;;;;;;;1.20;0.88;;;21.50;26.30;22.00;95043.00;;;;10233866;28;45178;-63
2021/12/19 08:16:46;;;;;;;0.77;0.77;;;21.50;26.40;21.90;95039.00;;;;10290673;23;46020;-63
2021/12/19 08:21:46;;;;;;;1.20;0.90;;;21.40;26.30;21.90;95038.00;;;;10271458;28;45624;-61
2021/12/19 08:26:47;;;;;;;1.00;0.90;;;21.40;26.40;21.90;95042.00;;;;10251258;28;45299;-62
2021/12/19 08:31:48;;;;;;;0.88;0.80;;;21.40;26.40;21.80;95051.00;;;;10231863;28;45247;-61
2021/12/19 08:36:48;;;;;;;1.00;0.90;;;21.30;26.40;21.80;95042.00;;;;10236941;28;45264;-61
2021/12/19 08:41:50;;;;;;;0.70;0.68;;;21.30;26.50;21.90;95026.00;;;;10220730;28;48073;-61
2021/12/19 08:46:50;;;;;;;0.90;0.70;;;21.30;26.50;21.90;95032.00;;;;10236517;28;46500;-61
2021/12/19 08:51:51;;;;;;;0.88;0.88;;;21.40;26.50;22.00;95044.00;;;;10236960;28;45380;-61
2021/12/19 08:56:52;;;;;;;1.50;0.93;;;21.40;26.50;22.00;95034.00;;;;10236821;28;45230;-63
2021/12/19 09:01:54;;;;;;;0.70;0.70;;;21.40;26.40;22.00;95028.00;;;;10266882;28;46570;-61
2021/12/19 09:06:59;;;;;;;0.95;0.75;;;21.50;26.40;22.10;95025.00;;;;10276864;28;45319;-67
2021/12/19 09:11:59;;;;;;;2.30;1.70;;;21.50;26.40;21.80;95030.00;;;;10267743;28;46611;-62
2021/12/19 09:17:01;;;;;;;2.75;2.03;;;21.40;25.20;21.70;95006.00;;;;10233981;28;45376;-62
2021/12/19 09:22:03;;;;;;;2.42;1.70;;;21.20;25.00;21.60;95018.00;;;;10274753;28;45816;-62
2021/12/19 09:27:07;;;;;;;3.33;2.13;;;21.20;25.20;21.50;95029.00;;;;10276166;28;46931;-62
2021/12/19 09:32:08;;;;;;;2.83;1.88;;;21.10;25.10;21.50;95017.00;;;;10275858;28;45375;-62
2021/12/19 09:37:08;;;;;;;4.55;1.75;;;21.00;25.00;21.50;95010.00;;;;10274657;28;45364;-63
2021/12/19 09:42:10;;;;;;;3.67;1.67;;;21.00;25.70;21.40;95011.00;;;;10236567;28;45365;-65
2021/12/19 09:47:11;;;;;;;2.40;1.75;;;20.90;26.00;21.40;95007.00;;;;10235409;28;46093;-62
2021/12/19 09:52:12;;;;;;;4.95;2.00;;;20.90;26.20;21.40;94995.00;;;;10233961;28;45115;-65
2021/12/19 09:57:12;;;;;;;2.90;2.15;;;20.90;26.50;21.40;94988.00;;;;10233565;28;45311;-62
2021/12/19 10:02:13;;;;;;;3.25;1.80;;;20.90;26.60;21.40;94972.00;;;;10239543;28;46712;-62
2021/12/19 10:07:21;;;;;;;3.72;2.13;;;20.90;26.60;21.40;94990.00;;;;10241594;28;48174;-65
2021/12/19 10:17:41;;;;;;;3.03;2.15;;;20.90;26.80;21.40;94966.00;;;;10246890;28;45831;-63
2021/12/19 10:22:47;;;;;;;3.40;2.22;;;20.90;26.80;21.40;94965.00;;;;10233746;28;45250;-65
2021/12/19 10:27:57;;;;;;;3.20;2.30;;;20.90;26.80;21.40;94953.00;;;;10234531;28;45353;-61
2021/12/19 10:33:11;;;;;;;4.85;2.55;;;20.90;26.40;21.40;94952.00;;;;10249716;28;45804;-66
2021/12/19 10:38:17;;;;;;;4.40;2.70;;;20.90;26.90;21.40;94930.00;;;;10245365;28;45983;-65
2021/12/19 10:43:19;;;;;;;2.72;2.00;;;20.90;27.30;21.50;94907.00;;;;10251900;28;46793;-67
2021/12/19 10:48:36;;;;;;;4.35;2.20;;;20.90;27.40;21.50;94917.00;;;;10253428;28;47340;-61
2021/12/19 10:53:41;;;;;;;3.78;2.50;;;21.00;27.40;21.50;94901.00;;;;10238728;28;45270;-62
2021/12/19 10:58:51;;;;;;;3.35;2.30;;;21.00;27.50;21.50;94903.00;;;;10231864;28;46724;-60
2021/12/19 11:04:20;;;;;;;4.65;2.80;;;21.00;27.60;21.40;94894.00;;;;10239806;28;46590;-62
2021/12/19 11:09:29;;;;;;;3.65;2.35;;;21.00;27.80;21.40;94872.00;;;;10247634;28;45482;-61
2021/12/19 11:14:43;;;;;;;2.42;1.83;;;20.90;28.00;21.40;94874.00;;;;10246794;28;45380;-65
2021/12/19 11:19:45;;;;;;;2.38;1.85;;;20.90;28.20;21.40;94865.00;;;;10257405;28;47130;-64
2021/12/19 11:24:45;;;;;;;2.60;1.70;;;20.90;28.20;21.40;94850.00;;;;10260199;28;45450;-65
2021/12/19 11:29:50;;;;;;;3.00;2.10;;;20.90;28.10;21.30;94845.00;;;;10270238;28;47939;-65
2021/12/19 11:35:11;;;;;;;3.60;2.30;;;20.90;28.20;21.30;94831.00;;;;10271067;28;46381;-65
2021/12/19 11:40:20;;;;;;;4.65;2.45;;;20.80;28.10;21.30;94829.00;;;;10286602;28;46989;-64
2021/12/19 11:45:53;;;;;;;3.45;2.40;;;20.80;28.10;21.30;94826.00;;;;10286740;28;46947;-65
2021/12/19 11:50:52;;;;;;;4.57;2.10;;;20.80;28.30;21.30;94825.00;;;;10270332;28;45583;-64
2021/12/19 11:56:06;;;;;;;4.55;2.42;;;20.80;28.30;21.30;94805.00;;;;10270086;28;47092;-64
2021/12/19 12:01:11;;;;;;;4.03;2.50;;;20.80;28.60;21.30;94805.00;;;;10271660;28;45178;-65
2021/12/19 12:06:20;;;;;;;3.40;2.00;;;20.80;28.60;21.30;94802.00;;;;10248030;28;46900;-63
2021/12/19 12:11:20;;;;;;;2.83;2.20;;;20.80;28.50;21.30;94788.00;;;;10256383;28;45335;-63
2021/12/19 12:26:44;;;;;;;;;;;20.80;28.40;21.30;94773.00;;;;10276781;28;45362;-64
2021/12/19 12:31:47;;;;;;;2.58;1.92;;;20.80;28.30;21.20;94747.00;;;;10276220;28;47114;-63
2021/12/19 12:36:49;;;;;;;3.88;2.30;;;20.80;28.30;21.30;94756.00;;;;10276151;28;45375;-64
2021/12/19 12:42:00;;;;;;;3.22;2.30;;;20.80;28.30;21.30;94746.00;;;;10276243;28;45531;-63
2021/12/19 12:47:01;;;;;;;3.55;2.30;;;20.80;28.30;21.30;94743.00;;;;10260790;28;47145;-64
2021/12/19 12:52:05;;;;;;;3.30;2.50;;;20.80;28.30;21.30;94724.00;;;;10258241;28;46992;-65
2021/12/19 12:57:14;;;;;;;2.95;2.30;;;20.80;28.30;21.20;94726.00;;;;10291253;28;47611;-64
2021/12/19 13:02:26;;;;;;;2.60;2.05;;;20.70;28.30;21.10;94723.00;;;;10275800;28;46352;-64
2021/12/19 13:07:27;;;;;;;4.05;2.20;;;20.70;28.30;21.20;94701.00;;;;10262760;28;46922;-63
2021/12/19 13:12:30;;;;;;;3.45;2.10;;;20.80;28.40;21.20;94716.00;;;;10264876;28;45246;-65
2021/12/19 13:17:48;;;;;;;3.35;2.40;;;20.80;28.50;21.30;94710.00;;;;10264647;28;46741;-66
2021/12/19 13:23:00;;;;;;;3.40;2.55;;;20.80;28.70;21.30;94698.00;;;;10257722;28;45272;-61
2021/12/19 13:28:05;;;;;;;3.58;2.40;;;20.80;28.60;21.30;94691.00;;;;10272372;28;45260;-62
2021/12/19 13:33:18;;;;;;;3.17;2.50;;;20.80;28.70;21.30;94669.00;;;;10258074;28;47331;-62
2021/12/19 13:38:27;;;;;;;3.83;2.78;;;20.80;29.20;21.30;94677.00;;;;10232024;28;46280;-63
2021/12/19 13:43:32;;;;;;;3.50;2.30;;;20.80;28.60;21.20;94675.00;;;;10211377;28;47900;-63
2021/12/19 13:48:51;;;;;;;3.55;2.40;;;20.80;28.50;21.20;94660.00;;;;10227154;28;47582;-64
2021/12/19 13:53:56;;;;;;;3.50;2.60;;;20.80;28.30;21.30;94675.00;;;;10244207;28;47088;-63
2021/12/19 13:59:20;;;;;;;3.30;2.50;;;20.80;28.20;21.30;94670.00;;;;10271747;28;46874;-63
2021/12/19 14:04:28;;;;;;;3.47;2.30;;;20.80;28.20;21.30;94662.00;;;;10272357;28;45487;-62
2021/12/19 14:09:30;;;;;;;3.30;2.40;;;20.80;28.20;21.30;94643.00;;;;10270355;28;45927;-63
2021/12/19 14:14:31;;;;;;;3.72;2.65;;;20.80;28.20;21.30;94643.00;;;;10246623;28;47485;-63
2021/12/19 14:19:40;;;;;;;3.38;2.42;;;20.80;28.10;21.20;94641.00;;;;10261213;28;45315;-62
2021/12/19 14:25:01;;;;;;;3.70;2.92;;;20.80;27.90;21.30;94650.00;;;;10259906;28;47340;-62
2021/12/19 14:30:19;;;;;;;4.72;2.97;;;20.80;27.80;21.20;94633.00;;;;10250781;28;45311;-63
2021/12/19 14:35:33;;;;;;;4.50;2.80;;;20.80;27.70;21.20;94640.00;;;;10261268;28;45262;-63
2021/12/19 14:40:42;;;;;;;4.07;2.50;;;20.80;27.50;21.20;94637.00;;;;10267574;28;45232;-63
2021/12/19 14:45:52;;;;;;;3.38;2.30;;;20.80;27.50;21.20;94639.00;;;;10256735;28;45262;-63
2021/12/19 14:51:06;;;;;;;4.50;3.15;;;20.80;27.40;21.30;94630.00;;;;10245552;28;46909;-63
2021/12/19 14:56:09;;;;;;;4.50;3.22;;;20.80;27.40;21.20;94624.00;;;;10267671;28;46980;-63
2021/12/19 15:01:22;;;;;;;5.28;3.25;;;20.80;27.50;21.20;94623.00;;;;10263541;28;45385;-63
2021/12/19 15:06:30;;;;;;;4.28;2.78;;;20.80;27.40;21.20;94621.00;;;;10252658;28;47057;-64
2021/12/19 15:11:30;;;;;;;4.82;2.92;;;20.80;27.20;21.30;94622.00;;;;10251520;28;45512;-64
2021/12/19 15:16:32;;;;;;;5.90;2.65;;;20.80;27.70;21.20;94615.00;;;;10240876;28;46662;-62
2021/12/19 15:21:33;;;;;;;3.38;2.65;;;20.80;26.90;21.20;94610.00;;;;10225358;28;47656;-63
2021/12/19 15:26:35;;;;;;;5.43;3.42;;;20.80;26.60;21.20;94609.00;;;;10226088;28;46467;-63
2021/12/19 15:31:38;;;;;;;5.07;3.30;;;20.70;26.20;21.20;94588.00;;;;10229092;28;47932;-63
2021/12/19 15:36:39;;;;;;;6.63;3.20;;;20.70;26.10;21.20;94589.00;;;;10229398;28;48062;-61
2021/12/19 15:41:40;;;;;;;6.18;3.22;;;20.70;25.80;21.20;94586.00;;;;10230549;28;45426;-63
2021/12/19 15:46:41;;;;;;;5.40;3.35;;;20.70;25.60;21.10;94578.00;;;;10228203;28;47291;-63
2021/12/19 15:51:42;;;;;;;4.78;3.42;;;20.70;25.60;21.10;94596.00;;;;10231659;28;45765;-61
2021/12/19 15:56:43;;;;;;;4.82;3.30;;;20.70;25.60;21.10;94579.00;;;;10229586;28;45487;-63
2021/12/19 16:01:44;;;;;;;5.47;3.40;;;20.60;25.40;21.10;94583.00;;;;10214169;28;48172;-61
2021/12/19 16:06:45;;;;;;;4.50;2.90;;;20.60;25.30;21.10;94587.00;;;;10213181;28;46900;-62
2021/12/19 16:11:45;;;;;;;3.78;2.83;;;20.60;25.30;21.10;94563.00;;;;10229701;28;45399;-63
2021/12/19 16:16:46;;;;;;;3.67;2.65;;;20.60;25.20;21.10;94545.00;;;;10229175;28;45378;-63
2021/12/19 16:21:46;;;;;;;3.33;2.63;;;20.60;25.20;21.10;94588.00;;;;10210356;28;47305;-62
2021/12/19 16:26:47;;;;;;;4.45;2.97;;;20.60;25.10;21.10;94578.00;;;;10255969;28;46253;-63
2021/12/19 16:31:48;;;;;;;3.38;2.50;;;20.60;25.10;21.10;94560.00;;;;10244615;28;47003;-64
2021/12/19 16:36:50;;;;;;;2.83;2.25;;;20.60;25.10;21.10;94565.00;;;;10226512;28;47000;-64
2021/12/19 16:42:09;;;;;;;4.93;2.22;;;20.60;25.30;21.10;94565.00;;;;10226899;28;45978;-64
2021/12/19 16:47:09;;;;;;;4.38;2.78;;;20.60;25.40;21.10;94564.00;;;;10171440;28;79509;-64
2021/12/19 16:52:10;;;;;;;3.78;2.75;;;20.60;25.50;21.10;94558.00;;;;10283118;28;45553;-64
2021/12/19 16:57:11;;;;;;;4.95;3.10;;;20.60;25.60;21.10;94555.00;;;;10272623;28;47384;-64
2021/12/19 17:02:13;;;;;;;6.88;3.53;;;20.60;25.60;21.10;94559.00;;;;10290155;28;45257;-63
2021/12/19 17:07:13;;;;;;;6.53;3.30;;;20.70;25.70;21.10;94564.00;;;;10289069;28;45275;-63
2021/12/19 17:12:17;;;;;;;4.82;3.17;;;20.70;25.70;21.20;94535.00;;;;10282034;28;46798;-64
2021/12/19 17:17:18;;;;;;;4.88;3.03;;;20.70;25.70;21.20;94552.00;;;;10274531;28;1062254;-63
2021/12/19 17:22:19;;;;;;;4.60;3.40;;;20.70;25.70;21.20;94531.00;;;;10312341;28;45352;-64
2021/12/19 17:27:19;;;;;;;5.90;3.30;;;20.70;25.70;21.20;94547.00;;;;10315729;28;45173;-63
2021/12/19 17:32:20;;;;;;;5.68;3.80;;;20.70;25.70;21.20;94535.00;;;;10316408;28;46055;-61
2021/12/19 17:37:22;;;;;;;6.03;3.67;;;20.70;25.70;21.20;94529.00;;;;10314418;28;45393;-63
2021/12/19 17:42:23;;;;;;;5.15;3.33;;;20.70;25.70;21.20;94548.00;;;;10314668;28;45231;-63
2021/12/19 17:47:24;;;;;;;4.88;3.30;;;20.70;25.70;21.20;94534.00;;;;10313029;28;45469;-62
2021/12/19 17:52:24;;;;;;;5.85;3.50;;;20.70;25.70;21.20;94535.00;;;;10314176;28;46388;-63
2021/12/19 17:57:25;;;;;;;4.35;3.15;;;20.70;25.70;21.20;94540.00;;;;10313779;28;46128;-63
2021/12/19 18:02:26;;;;;;;5.53;3.33;;;20.70;25.60;21.20;94537.00;;;;10311022;28;45334;-63
2021/12/19 18:07:27;;;;;;;6.40;3.70;;;20.70;25.60;21.20;94533.00;;;;10309778;28;45585;-63
2021/12/19 18:12:28;;;;;;;4.75;3.33;;;20.70;25.60;21.20;94536.00;;;;10313496;28;45388;-63
2021/12/19 18:17:28;;;;;;;5.43;3.50;;;20.70;25.50;21.20;94518.00;;;;10297068;28;48467;-64
2021/12/19 18:22:29;;;;;;;6.90;3.53;;;20.70;25.60;21.20;94530.00;;;;10314086;28;45170;-63
2021/12/19 18:27:30;;;;;;;5.90;3.88;;;20.70;25.40;21.20;94519.00;;;;10313115;28;45938;-64
2021/12/19 18:32:31;;;;;;;6.53;3.83;;;20.80;25.50;21.20;94538.00;;;;10314739;28;45442;-64
2021/12/19 18:37:35;;;;;;;5.38;3.58;;;20.70;25.40;21.20;94524.00;;;;10312314;28;47121;-64
2021/12/19 18:48:08;;;;;;;5.78;3.30;;;20.70;25.30;21.20;94528.00;;;;10297277;28;45316;-62
2021/12/19 18:53:18;;;;;;;4.50;3.45;;;20.70;25.30;21.20;94516.00;;;;10272336;28;45491;-64
2021/12/19 18:58:25;;;;;;;5.10;3.55;;;20.80;25.30;21.20;94504.00;;;;10288205;28;47175;-63
2021/12/19 19:08:34;;;;;;;5.03;3.55;;;20.70;25.20;21.20;94486.00;;;;10271905;28;45148;-62
2021/12/19 19:13:35;;;;;;;4.93;3.47;;;20.80;25.20;21.20;94505.00;;;;10294072;28;45518;-62
2021/12/19 19:18:36;;;;;;;4.78;3.25;;;20.80;25.10;21.20;94486.00;;;;10311522;28;45560;-62
2021/12/19 19:23:36;;;;;;;3.95;3.03;;;20.70;25.00;21.20;94489.00;;;;10313218;28;45557;-61
2021/12/19 19:28:37;;;;;;;3.97;3.05;;;20.70;25.00;21.20;94488.00;;;;10328725;28;45302;-63
2021/12/19 19:33:38;;;;;;;5.03;3.20;;;20.70;24.90;21.20;94496.00;;;;10313630;28;45242;-62
2021/12/19 19:38:51;;;;;;;5.13;3.88;;;20.80;24.80;21.20;94479.00;;;;10311033;28;46998;-62
2021/12/19 19:49:13;;;;;;;5.18;3.42;;;20.70;24.80;21.20;94479.00;;;;10327006;28;46049;-61
2021/12/19 19:54:23;;;;;;;4.10;3.35;;;20.70;24.70;21.20;94475.00;;;;10311500;28;46708;-62
2021/12/19 19:59:27;;;;;;;4.18;2.95;;;20.70;24.70;21.20;94496.00;;;;10311948;28;46689;-62
2021/12/19 20:04:31;;;;;;;3.75;3.05;;;20.70;24.60;21.20;94488.00;;;;10312815;28;46623;-61
2021/12/19 20:09:32;;;;;;;4.18;2.90;;;20.70;24.60;21.20;94474.00;;;;10327506;28;46599;-61
2021/12/19 20:14:35;;;;;;;3.13;2.50;;;20.70;24.60;21.20;94466.00;;;;10327776;28;45118;-62
2021/12/19 20:19:41;;;;;;;3.28;2.60;;;20.70;24.60;21.20;94489.00;;;;10310708;28;45630;-64
2021/12/19 20:24:41;;;;;;;3.80;2.65;;;20.80;24.60;21.20;94496.00;;;;10309821;28;47061;-64
2021/12/19 20:29:42;;;;;;;4.32;2.50;;;20.80;24.60;21.20;94489.00;;;;10312749;28;46453;-63
2021/12/19 20:34:43;;;;;;;3.67;2.40;;;20.80;24.60;21.20;94487.00;;;;10316954;28;45578;-64
2021/12/19 20:39:44;;;;;;;3.28;2.30;;;20.80;24.50;21.20;94471.00;;;;10316945;28;46186;-64
2021/12/19 20:44:44;;;;;;;3.28;2.22;;;20.80;24.40;21.20;94471.00;;;;10316924;28;46087;-63
2021/12/19 20:49:46;;;;;;;3.40;2.40;;;20.80;24.40;21.20;94468.00;;;;10317251;28;46357;-63
2021/12/19 20:54:46;;;;;;;2.58;2.13;;;20.80;24.40;21.20;94464.00;;;;10317626;28;46192;-63
2021/12/19 20:59:47;;;;;;;3.05;2.30;;;20.80;24.40;21.20;94455.00;;;;10316156;28;45223;-64
2021/12/19 21:04:48;;;;;;;3.03;2.30;;;20.80;24.30;21.20;94473.00;;;;10317361;28;46465;-63
2021/12/19 21:09:49;;;;;;;2.75;2.05;;;20.80;24.30;21.20;94467.00;;;;10314998;28;45290;-63
2021/12/19 21:19:53;;;;;;;2.67;2.10;;;20.70;24.20;21.20;94465.00;;;;10316720;28;46058;-63
2021/12/19 21:24:54;;;;;;;3.55;2.30;;;20.70;24.10;21.20;94464.00;;;;10315358;28;46166;-63
2021/12/19 21:29:54;;;;;;;2.85;2.00;;;20.70;24.10;21.20;94482.00;;;;10315119;28;46198;-64
2021/12/19 21:35:10;;;;;;;2.95;2.08;;;20.70;24.00;21.10;94482.00;;;;10315312;28;46097;-64
2021/12/19 21:40:13;;;;;;;3.20;2.20;;;20.70;24.00;21.10;94472.00;;;;10299827;28;48107;-64
2021/12/19 21:45:14;;;;;;;2.45;2.00;;;20.60;23.90;21.10;94483.00;;;;10315013;28;45171;-63
2021/12/19 21:50:16;;;;;;;4.53;2.33;;;20.60;23.80;21.10;94471.00;;;;10314751;28;46409;-63
2021/12/19 21:55:18;;;;;;;3.42;2.15;;;20.60;23.90;21.00;94474.00;;;;10314383;28;45335;-63
2021/12/19 22:00:25;;;;;;;2.35;1.80;;;20.60;23.90;21.00;94462.00;;;;10314193;28;45234;-63
2021/12/19 22:05:26;;;;;;;2.42;1.90;;;20.50;23.90;21.00;94468.00;;;;10313908;28;46402;-64
2021/12/19 22:10:27;;;;;;;1.77;1.60;;;20.50;23.80;21.00;94465.00;;;;10313253;28;46254;-63
2021/12/19 22:15:33;;;;;;;2.05;1.65;;;20.50;23.80;21.00;94456.00;;;;10309156;28;46744;-63
2021/12/19 22:20:36;;;;;;;1.65;1.40;;;20.50;23.90;21.00;94463.00;;;;10311296;28;45579;-63
2021/12/19 22:25:38;;;;;;;2.03;1.70;;;20.50;23.90;21.00;94457.00;;;;10314427;28;45515;-62
2021/12/19 22:30:40;;;;;;;2.20;1.75;;;20.50;23.80;20.90;94449.00;;;;10296948;28;48233;-63
2021/12/19 22:35:41;;;;;;;2.13;1.52;;;20.50;23.80;20.90;94456.00;;;;10312854;28;45583;-63
2021/12/19 22:40:42;;;;;;;1.75;1.50;;;20.50;23.70;20.90;94445.00;;;;10313098;28;45141;-63
2021/12/19 22:45:42;;;;;;;2.15;1.60;;;20.50;23.70;20.90;94463.00;;;;10313609;28;46042;-62
2021/12/19 22:50:44;;;;;;;1.70;1.50;;;20.50;23.70;20.90;94458.00;;;;10313745;28;45181;-63
2021/12/19 22:55:44;;;;;;;2.53;1.80;;;20.40;23.60;20.90;94449.00;;;;10313294;28;45167;-63
2021/12/19 23:00:50;;;;;;;2.33;1.80;;;20.40;23.50;20.90;94466.00;;;;10312004;28;45931;-63
2021/12/19 23:05:52;;;;;;;2.20;1.83;;;20.40;23.60;20.90;94454.00;;;;10313573;28;45249;-62
2021/12/19 23:11:01;;;;;;;2.45;1.90;;;20.40;23.50;20.90;94471.00;;;;10312140;28;45192;-62
2021/12/19 23:16:07;;;;;;;2.17;1.88;;;20.40;23.50;20.90;94452.00;;;;10313388;28;45369;-63
2021/12/19 23:21:08;;;;;;;2.65;1.83;;;20.40;23.50;20.90;94480.00;;;;10313253;28;46245;-63
2021/12/19 23:26:08;;;;;;;2.20;1.80;;;20.40;23.50;20.80;94445.00;;;;10312701;28;45389;-63
2021/12/19 23:31:09;;;;;;;2.53;1.90;;;20.40;23.50;20.80;94470.00;;;;10312574;28;46377;-61
2021/12/19 23:36:15;;;;;;;2.20;1.75;;;20.40;23.40;20.80;94457.00;;;;10327568;28;47366;-63
2021/12/19 23:46:21;;;;;;;2.60;1.80;;;20.40;23.50;20.80;94463.00;;;;10312000;28;45160;-63
2021/12/19 23:51:22;;;;;;;2.30;1.90;;;20.40;23.50;20.80;94468.00;;;;10311027;28;45191;-62
2021/12/19 23:56:23;;;;;;;2.58;1.90;;;20.40;23.50;20.80;94466.00;;;;10310696;28;46439;-63
